sensor_id;sensor_type;location;lat;lon;timestamp;pressure;altitude;pressure_sealevel;temperature
19666;BMP180;9980;51.020;7.772;2022-10-16T00:01:40;97127.00;;;17.30
19666;BMP180;9980;51.020;7.772;2022-10-16T00:04:08;97114.00;;;17.30
19666;BMP180;9980;51.020;7.772;2022-10-16T00:06:35;97100.00;;;17.30
19666;BMP180;9980;51.020;7.772;2022-10-16T00:09:02;97118.00;;;17.30
19666;BMP180;9980;51.020;7.772;2022-10-16T00:11:33;97123.00;;;17.30
19666;BMP180;9980;51.020;7.772;2022-10-16T00:14:03;97102.00;;;17.30
19666;BMP180;9980;51.020;7.772;2022-10-16T00:16:30;97103.00;;;17.30
19666;BMP180;9980;51.020;7.772;2022-10-16T00:18:58;97112.00;;;17.30
19666;BMP180;9980;51.020;7.772;2022-10-16T00:21:28;97115.00;;;17.20
19666;BMP180;9980;51.020;7.772;2022-10-16T00:24:04;97131.00;;;17.20
19666;BMP180;9980;51.020;7.772;2022-10-16T00:26:33;97126.00;;;17.20
19666;BMP180;9980;51.020;7.772;2022-10-16T00:29:01;97124.00;;;17.20
19666;BMP180;9980;51.020;7.772;2022-10-16T00:31:29;97118.00;;;17.20
19666;BMP180;9980;51.020;7.772;2022-10-16T00:33:56;97120.00;;;17.20
19666;BMP180;9980;51.020;7.772;2022-10-16T00:36:25;97125.00;;;17.20
19666;BMP180;9980;51.020;7.772;2022-10-16T00:38:58;97111.00;;;17.20
19666;BMP180;9980;51.020;7.772;2022-10-16T00:41:32;97136.00;;;17.20
19666;BMP180;9980;51.020;7.772;2022-10-16T00:44:03;97113.00;;;17.20
19666;BMP180;9980;51.020;7.772;2022-10-16T00:46:40;97118.00;;;17.20
19666;BMP180;9980;51.020;7.772;2022-10-16T00:49:15;97147.00;;;17.30
19666;BMP180;9980;51.020;7.772;2022-10-16T00:51:53;97136.00;;;17.30
19666;BMP180;9980;51.020;7.772;2022-10-16T00:54:29;97151.00;;;17.30
19666;BMP180;9980;51.020;7.772;2022-10-16T00:57:01;97149.00;;;17.30
19666;BMP180;9980;51.020;7.772;2022-10-16T00:59:33;97149.00;;;17.30
19666;BMP180;9980;51.020;7.772;2022-10-16T01:02:02;97150.00;;;17.30
19666;BMP180;9980;51.020;7.772;2022-10-16T01:04:36;97150.00;;;17.30
19666;BMP180;9980;51.020;7.772;2022-10-16T01:12:50;97157.00;;;17.30
19666;BMP180;9980;51.020;7.772;2022-10-16T01:15:54;97150.00;;;17.30
19666;BMP180;9980;51.020;7.772;2022-10-16T01:18:28;97150.00;;;17.30
19666;BMP180;9980;51.020;7.772;2022-10-16T01:21:29;97156.00;;;17.30
19666;BMP180;9980;51.020;7.772;2022-10-16T01:24:46;97145.00;;;17.30
19666;BMP180;9980;51.020;7.772;2022-10-16T01:27:22;97164.00;;;17.30
19666;BMP180;9980;51.020;7.772;2022-10-16T01:30:05;97164.00;;;17.30
19666;BMP180;9980;51.020;7.772;2022-10-16T01:32:42;97154.00;;;17.30
19666;BMP180;9980;51.020;7.772;2022-10-16T01:35:28;97158.00;;;17.30
19666;BMP180;9980;51.020;7.772;2022-10-16T01:38:19;97149.00;;;17.30
19666;BMP180;9980;51.020;7.772;2022-10-16T01:40:55;97145.00;;;17.30
19666;BMP180;9980;51.020;7.772;2022-10-16T01:43:38;97155.00;;;17.30
19666;BMP180;9980;51.020;7.772;2022-10-16T01:46:10;97149.00;;;17.30
19666;BMP180;9980;51.020;7.772;2022-10-16T01:48:37;97137.00;;;17.30
19666;BMP180;9980;51.020;7.772;2022-10-16T01:51:12;97131.00;;;17.30
19666;BMP180;9980;51.020;7.772;2022-10-16T01:53:42;97134.00;;;17.30
19666;BMP180;9980;51.020;7.772;2022-10-16T01:56:15;97141.00;;;17.30
19666;BMP180;9980;51.020;7.772;2022-10-16T01:58:52;97135.00;;;17.30
19666;BMP180;9980;51.020;7.772;2022-10-16T02:01:24;97159.00;;;17.30
19666;BMP180;9980;51.020;7.772;2022-10-16T02:03:56;97165.00;;;17.30
19666;BMP180;9980;51.020;7.772;2022-10-16T02:06:24;97175.00;;;17.30
19666;BMP180;9980;51.020;7.772;2022-10-16T02:08:51;97181.00;;;17.20
19666;BMP180;9980;51.020;7.772;2022-10-16T02:11:18;97147.00;;;17.20
19666;BMP180;9980;51.020;7.772;2022-10-16T02:13:52;97177.00;;;17.20
19666;BMP180;9980;51.020;7.772;2022-10-16T02:16:20;97160.00;;;17.20
19666;BMP180;9980;51.020;7.772;2022-10-16T02:18:47;97172.00;;;17.20
19666;BMP180;9980;51.020;7.772;2022-10-16T02:21:33;97165.00;;;17.10
19666;BMP180;9980;51.020;7.772;2022-10-16T02:24:30;97181.00;;;17.10
19666;BMP180;9980;51.020;7.772;2022-10-16T02:27:27;97182.00;;;17.00
19666;BMP180;9980;51.020;7.772;2022-10-16T02:30:18;97192.00;;;17.00
19666;BMP180;9980;51.020;7.772;2022-10-16T02:32:48;97157.00;;;17.00
19666;BMP180;9980;51.020;7.772;2022-10-16T02:35:19;97189.00;;;16.90
19666;BMP180;9980;51.020;7.772;2022-10-16T02:37:50;97187.00;;;16.90
19666;BMP180;9980;51.020;7.772;2022-10-16T02:40:18;97183.00;;;16.90
19666;BMP180;9980;51.020;7.772;2022-10-16T02:42:52;97184.00;;;16.80
19666;BMP180;9980;51.020;7.772;2022-10-16T02:45:21;97176.00;;;16.80
19666;BMP180;9980;51.020;7.772;2022-10-16T02:47:49;97193.00;;;16.80
19666;BMP180;9980;51.020;7.772;2022-10-16T02:50:16;97190.00;;;16.80
19666;BMP180;9980;51.020;7.772;2022-10-16T02:52:43;97199.00;;;16.70
19666;BMP180;9980;51.020;7.772;2022-10-16T02:55:10;97175.00;;;16.70
19666;BMP180;9980;51.020;7.772;2022-10-16T02:57:37;97175.00;;;16.70
19666;BMP180;9980;51.020;7.772;2022-10-16T03:00:05;97190.00;;;16.60
19666;BMP180;9980;51.020;7.772;2022-10-16T03:02:32;97192.00;;;16.60
19666;BMP180;9980;51.020;7.772;2022-10-16T03:04:59;97200.00;;;16.60
19666;BMP180;9980;51.020;7.772;2022-10-16T03:07:26;97189.00;;;16.50
19666;BMP180;9980;51.020;7.772;2022-10-16T03:09:54;97185.00;;;16.50
19666;BMP180;9980;51.020;7.772;2022-10-16T03:12:22;97183.00;;;16.50
19666;BMP180;9980;51.020;7.772;2022-10-16T03:14:49;97195.00;;;16.50
19666;BMP180;9980;51.020;7.772;2022-10-16T03:17:15;97197.00;;;16.50
19666;BMP180;9980;51.020;7.772;2022-10-16T03:19:43;97178.00;;;16.50
19666;BMP180;9980;51.020;7.772;2022-10-16T03:22:10;97194.00;;;16.50
19666;BMP180;9980;51.020;7.772;2022-10-16T03:24:37;97166.00;;;16.50
19666;BMP180;9980;51.020;7.772;2022-10-16T03:27:05;97162.00;;;16.50
19666;BMP180;9980;51.020;7.772;2022-10-16T03:29:32;97172.00;;;16.50
19666;BMP180;9980;51.020;7.772;2022-10-16T03:32:00;97193.00;;;16.50
19666;BMP180;9980;51.020;7.772;2022-10-16T03:34:27;97192.00;;;16.50
19666;BMP180;9980;51.020;7.772;2022-10-16T03:36:54;97180.00;;;16.60
19666;BMP180;9980;51.020;7.772;2022-10-16T03:39:21;97182.00;;;16.60
19666;BMP180;9980;51.020;7.772;2022-10-16T03:41:48;97188.00;;;16.60
19666;BMP180;9980;51.020;7.772;2022-10-16T03:44:15;97191.00;;;16.60
19666;BMP180;9980;51.020;7.772;2022-10-16T03:46:42;97188.00;;;16.60
19666;BMP180;9980;51.020;7.772;2022-10-16T03:49:09;97186.00;;;16.70
19666;BMP180;9980;51.020;7.772;2022-10-16T03:51:36;97162.00;;;16.70
19666;BMP180;9980;51.020;7.772;2022-10-16T03:54:03;97158.00;;;16.70
19666;BMP180;9980;51.020;7.772;2022-10-16T03:56:30;97160.00;;;16.70
19666;BMP180;9980;51.020;7.772;2022-10-16T03:58:57;97152.00;;;16.70
19666;BMP180;9980;51.020;7.772;2022-10-16T04:01:24;97151.00;;;16.80
19666;BMP180;9980;51.020;7.772;2022-10-16T04:03:51;97177.00;;;16.80
19666;BMP180;9980;51.020;7.772;2022-10-16T04:06:18;97171.00;;;16.80
19666;BMP180;9980;51.020;7.772;2022-10-16T04:08:45;97166.00;;;16.80
19666;BMP180;9980;51.020;7.772;2022-10-16T04:11:12;97170.00;;;16.80
19666;BMP180;9980;51.020;7.772;2022-10-16T04:13:39;97173.00;;;16.80
19666;BMP180;9980;51.020;7.772;2022-10-16T04:16:06;97179.00;;;16.90
19666;BMP180;9980;51.020;7.772;2022-10-16T04:18:33;97184.00;;;16.90
19666;BMP180;9980;51.020;7.772;2022-10-16T04:21:04;97181.00;;;16.90
19666;BMP180;9980;51.020;7.772;2022-10-16T04:23:32;97214.00;;;16.90
19666;BMP180;9980;51.020;7.772;2022-10-16T04:26:00;97210.00;;;16.90
19666;BMP180;9980;51.020;7.772;2022-10-16T04:28:27;97221.00;;;16.90
19666;BMP180;9980;51.020;7.772;2022-10-16T04:30:54;97223.00;;;17.00
19666;BMP180;9980;51.020;7.772;2022-10-16T04:33:21;97235.00;;;17.00
19666;BMP180;9980;51.020;7.772;2022-10-16T04:35:48;97225.00;;;17.00
19666;BMP180;9980;51.020;7.772;2022-10-16T04:38:16;97210.00;;;17.00
19666;BMP180;9980;51.020;7.772;2022-10-16T04:40:43;97201.00;;;17.00
19666;BMP180;9980;51.020;7.772;2022-10-16T04:43:10;97212.00;;;17.00
19666;BMP180;9980;51.020;7.772;2022-10-16T04:45:37;97217.00;;;17.00
19666;BMP180;9980;51.020;7.772;2022-10-16T04:48:04;97197.00;;;17.00
19666;BMP180;9980;51.020;7.772;2022-10-16T04:50:31;97221.00;;;17.00
19666;BMP180;9980;51.020;7.772;2022-10-16T04:53:05;97217.00;;;17.00
19666;BMP180;9980;51.020;7.772;2022-10-16T04:55:32;97223.00;;;17.00
19666;BMP180;9980;51.020;7.772;2022-10-16T04:57:59;97223.00;;;17.00
19666;BMP180;9980;51.020;7.772;2022-10-16T05:00:26;97238.00;;;17.00
19666;BMP180;9980;51.020;7.772;2022-10-16T05:02:53;97238.00;;;17.10
19666;BMP180;9980;51.020;7.772;2022-10-16T05:05:20;97229.00;;;17.10
19666;BMP180;9980;51.020;7.772;2022-10-16T05:07:48;97216.00;;;17.00
19666;BMP180;9980;51.020;7.772;2022-10-16T05:10:16;97233.00;;;17.10
19666;BMP180;9980;51.020;7.772;2022-10-16T05:12:43;97231.00;;;17.10
19666;BMP180;9980;51.020;7.772;2022-10-16T05:15:10;97237.00;;;17.10
19666;BMP180;9980;51.020;7.772;2022-10-16T05:17:37;97231.00;;;17.10
19666;BMP180;9980;51.020;7.772;2022-10-16T05:20:11;97235.00;;;17.10
19666;BMP180;9980;51.020;7.772;2022-10-16T05:22:38;97240.00;;;17.10
19666;BMP180;9980;51.020;7.772;2022-10-16T05:25:06;97239.00;;;17.10
19666;BMP180;9980;51.020;7.772;2022-10-16T05:27:33;97255.00;;;17.10
19666;BMP180;9980;51.020;7.772;2022-10-16T05:30:00;97254.00;;;17.10
19666;BMP180;9980;51.020;7.772;2022-10-16T05:32:26;97248.00;;;17.10
19666;BMP180;9980;51.020;7.772;2022-10-16T05:34:53;97264.00;;;17.20
19666;BMP180;9980;51.020;7.772;2022-10-16T05:37:20;97243.00;;;17.20
19666;BMP180;9980;51.020;7.772;2022-10-16T05:39:47;97255.00;;;17.20
19666;BMP180;9980;51.020;7.772;2022-10-16T05:42:14;97260.00;;;17.20
19666;BMP180;9980;51.020;7.772;2022-10-16T05:44:41;97247.00;;;17.20
19666;BMP180;9980;51.020;7.772;2022-10-16T05:47:08;97256.00;;;17.20
19666;BMP180;9980;51.020;7.772;2022-10-16T05:49:37;97266.00;;;17.20
19666;BMP180;9980;51.020;7.772;2022-10-16T05:52:07;97278.00;;;17.20
19666;BMP180;9980;51.020;7.772;2022-10-16T05:54:34;97279.00;;;17.20
19666;BMP180;9980;51.020;7.772;2022-10-16T05:57:01;97270.00;;;17.20
19666;BMP180;9980;51.020;7.772;2022-10-16T05:59:28;97276.00;;;17.30
19666;BMP180;9980;51.020;7.772;2022-10-16T06:01:55;97289.00;;;17.30
19666;BMP180;9980;51.020;7.772;2022-10-16T06:04:22;97301.00;;;17.30
19666;BMP180;9980;51.020;7.772;2022-10-16T06:06:49;97274.00;;;17.30
19666;BMP180;9980;51.020;7.772;2022-10-16T06:09:16;97290.00;;;17.30
19666;BMP180;9980;51.020;7.772;2022-10-16T06:11:43;97289.00;;;17.30
19666;BMP180;9980;51.020;7.772;2022-10-16T06:14:10;97301.00;;;17.40
19666;BMP180;9980;51.020;7.772;2022-10-16T06:16:37;97299.00;;;17.40
19666;BMP180;9980;51.020;7.772;2022-10-16T06:19:04;97312.00;;;17.40
19666;BMP180;9980;51.020;7.772;2022-10-16T06:21:35;97316.00;;;17.40
19666;BMP180;9980;51.020;7.772;2022-10-16T06:24:01;97285.00;;;17.40
19666;BMP180;9980;51.020;7.772;2022-10-16T06:26:30;97308.00;;;17.40
19666;BMP180;9980;51.020;7.772;2022-10-16T06:28:59;97302.00;;;17.40
19666;BMP180;9980;51.020;7.772;2022-10-16T06:31:29;97315.00;;;17.50
19666;BMP180;9980;51.020;7.772;2022-10-16T06:33:58;97303.00;;;17.50
19666;BMP180;9980;51.020;7.772;2022-10-16T06:36:26;97311.00;;;17.50
19666;BMP180;9980;51.020;7.772;2022-10-16T06:38:54;97320.00;;;17.50
19666;BMP180;9980;51.020;7.772;2022-10-16T06:41:23;97304.00;;;17.50
19666;BMP180;9980;51.020;7.772;2022-10-16T06:43:50;97317.00;;;17.60
19666;BMP180;9980;51.020;7.772;2022-10-16T06:46:21;97316.00;;;17.60
19666;BMP180;9980;51.020;7.772;2022-10-16T06:48:48;97315.00;;;17.60
19666;BMP180;9980;51.020;7.772;2022-10-16T06:51:24;97324.00;;;17.60
19666;BMP180;9980;51.020;7.772;2022-10-16T06:53:54;97338.00;;;17.70
19666;BMP180;9980;51.020;7.772;2022-10-16T06:56:32;97340.00;;;17.70
19666;BMP180;9980;51.020;7.772;2022-10-16T06:59:00;97343.00;;;17.70
19666;BMP180;9980;51.020;7.772;2022-10-16T07:01:28;97362.00;;;17.70
19666;BMP180;9980;51.020;7.772;2022-10-16T07:03:55;97357.00;;;17.70
19666;BMP180;9980;51.020;7.772;2022-10-16T07:06:25;97362.00;;;17.70
19666;BMP180;9980;51.020;7.772;2022-10-16T07:08:52;97369.00;;;17.70
19666;BMP180;9980;51.020;7.772;2022-10-16T07:11:23;97372.00;;;17.70
19666;BMP180;9980;51.020;7.772;2022-10-16T07:13:51;97363.00;;;17.70
19666;BMP180;9980;51.020;7.772;2022-10-16T07:16:28;97396.00;;;17.70
19666;BMP180;9980;51.020;7.772;2022-10-16T07:18:58;97391.00;;;17.80
19666;BMP180;9980;51.020;7.772;2022-10-16T07:21:33;97379.00;;;17.80
19666;BMP180;9980;51.020;7.772;2022-10-16T07:24:09;97393.00;;;17.80
19666;BMP180;9980;51.020;7.772;2022-10-16T07:26:37;97398.00;;;17.80
19666;BMP180;9980;51.020;7.772;2022-10-16T07:29:15;97393.00;;;17.90
19666;BMP180;9980;51.020;7.772;2022-10-16T07:31:44;97413.00;;;17.90
19666;BMP180;9980;51.020;7.772;2022-10-16T07:34:13;97407.00;;;18.00
19666;BMP180;9980;51.020;7.772;2022-10-16T07:36:41;97397.00;;;18.00
19666;BMP180;9980;51.020;7.772;2022-10-16T07:39:08;97413.00;;;18.00
19666;BMP180;9980;51.020;7.772;2022-10-16T07:41:35;97430.00;;;18.00
19666;BMP180;9980;51.020;7.772;2022-10-16T07:44:04;97443.00;;;18.00
19666;BMP180;9980;51.020;7.772;2022-10-16T07:46:31;97440.00;;;18.10
19666;BMP180;9980;51.020;7.772;2022-10-16T07:48:59;97424.00;;;18.10
19666;BMP180;9980;51.020;7.772;2022-10-16T07:51:27;97432.00;;;18.10
19666;BMP180;9980;51.020;7.772;2022-10-16T07:53:54;97448.00;;;18.20
19666;BMP180;9980;51.020;7.772;2022-10-16T07:56:22;97430.00;;;18.20
19666;BMP180;9980;51.020;7.772;2022-10-16T07:58:51;97447.00;;;18.30
19666;BMP180;9980;51.020;7.772;2022-10-16T08:01:18;97465.00;;;18.30
19666;BMP180;9980;51.020;7.772;2022-10-16T08:03:50;97457.00;;;18.30
19666;BMP180;9980;51.020;7.772;2022-10-16T08:06:20;97445.00;;;18.40
19666;BMP180;9980;51.020;7.772;2022-10-16T08:08:55;97457.00;;;18.50
19666;BMP180;9980;51.020;7.772;2022-10-16T08:11:22;97466.00;;;18.50
19666;BMP180;9980;51.020;7.772;2022-10-16T08:13:50;97474.00;;;18.50
19666;BMP180;9980;51.020;7.772;2022-10-16T08:16:17;97476.00;;;18.60
19666;BMP180;9980;51.020;7.772;2022-10-16T08:18:44;97480.00;;;18.60
19666;BMP180;9980;51.020;7.772;2022-10-16T08:21:17;97495.00;;;18.60
19666;BMP180;9980;51.020;7.772;2022-10-16T08:23:48;97499.00;;;18.60
19666;BMP180;9980;51.020;7.772;2022-10-16T08:26:25;97499.00;;;18.60
19666;BMP180;9980;51.020;7.772;2022-10-16T08:28:52;97504.00;;;18.60
19666;BMP180;9980;51.020;7.772;2022-10-16T08:31:21;97495.00;;;18.60
19666;BMP180;9980;51.020;7.772;2022-10-16T08:33:48;97498.00;;;18.60
19666;BMP180;9980;51.020;7.772;2022-10-16T08:36:16;97496.00;;;18.60
19666;BMP180;9980;51.020;7.772;2022-10-16T08:38:48;97502.00;;;18.60
19666;BMP180;9980;51.020;7.772;2022-10-16T08:44:36;97517.00;;;18.60
19666;BMP180;9980;51.020;7.772;2022-10-16T08:47:23;97511.00;;;18.60
19666;BMP180;9980;51.020;7.772;2022-10-16T08:50:02;97501.00;;;18.60
19666;BMP180;9980;51.020;7.772;2022-10-16T08:52:40;97514.00;;;18.70
19666;BMP180;9980;51.020;7.772;2022-10-16T08:55:41;97512.00;;;18.70
19666;BMP180;9980;51.020;7.772;2022-10-16T08:58:17;97515.00;;;18.80
19666;BMP180;9980;51.020;7.772;2022-10-16T09:00:53;97536.00;;;18.90
19666;BMP180;9980;51.020;7.772;2022-10-16T09:04:00;97537.00;;;19.00
19666;BMP180;9980;51.020;7.772;2022-10-16T09:09:42;97546.00;;;19.10
19666;BMP180;9980;51.020;7.772;2022-10-16T09:12:28;97553.00;;;19.20
19666;BMP180;9980;51.020;7.772;2022-10-16T09:15:14;97556.00;;;19.30
19666;BMP180;9980;51.020;7.772;2022-10-16T09:21:26;97549.00;;;19.40
19666;BMP180;9980;51.020;7.772;2022-10-16T09:24:00;97546.00;;;19.40
19666;BMP180;9980;51.020;7.772;2022-10-16T09:26:31;97548.00;;;19.50
19666;BMP180;9980;51.020;7.772;2022-10-16T09:28:58;97550.00;;;19.60
19666;BMP180;9980;51.020;7.772;2022-10-16T09:31:25;97547.00;;;19.60
19666;BMP180;9980;51.020;7.772;2022-10-16T09:34:00;97558.00;;;19.70
19666;BMP180;9980;51.020;7.772;2022-10-16T09:36:40;97561.00;;;19.70
19666;BMP180;9980;51.020;7.772;2022-10-16T09:39:11;97554.00;;;19.80
19666;BMP180;9980;51.020;7.772;2022-10-16T09:41:44;97574.00;;;19.90
19666;BMP180;9980;51.020;7.772;2022-10-16T09:44:27;97564.00;;;19.90
19666;BMP180;9980;51.020;7.772;2022-10-16T09:47:20;97555.00;;;20.00
19666;BMP180;9980;51.020;7.772;2022-10-16T09:50:25;97561.00;;;20.00
19666;BMP180;9980;51.020;7.772;2022-10-16T09:53:14;97554.00;;;20.00
19666;BMP180;9980;51.020;7.772;2022-10-16T09:55:53;97563.00;;;20.00
19666;BMP180;9980;51.020;7.772;2022-10-16T09:58:23;97560.00;;;20.10
19666;BMP180;9980;51.020;7.772;2022-10-16T10:00:53;97571.00;;;20.20
19666;BMP180;9980;51.020;7.772;2022-10-16T10:03:43;97575.00;;;20.30
19666;BMP180;9980;51.020;7.772;2022-10-16T10:06:25;97575.00;;;20.30
19666;BMP180;9980;51.020;7.772;2022-10-16T10:11:48;97575.00;;;20.40
19666;BMP180;9980;51.020;7.772;2022-10-16T10:14:47;97581.00;;;20.40
19666;BMP180;9980;51.020;7.772;2022-10-16T10:17:22;97575.00;;;20.50
19666;BMP180;9980;51.020;7.772;2022-10-16T10:20:33;97586.00;;;20.50
19666;BMP180;9980;51.020;7.772;2022-10-16T10:23:23;97582.00;;;20.50
19666;BMP180;9980;51.020;7.772;2022-10-16T10:26:17;97569.00;;;20.60
19666;BMP180;9980;51.020;7.772;2022-10-16T10:32:09;97575.00;;;20.70
19666;BMP180;9980;51.020;7.772;2022-10-16T10:37:56;97566.00;;;20.80
19666;BMP180;9980;51.020;7.772;2022-10-16T10:46:50;97567.00;;;21.10
19666;BMP180;9980;51.020;7.772;2022-10-16T10:58:37;97577.00;;;21.40
19666;BMP180;9980;51.020;7.772;2022-10-16T11:01:14;97599.00;;;21.40
19666;BMP180;9980;51.020;7.772;2022-10-16T11:07:04;97586.00;;;21.50
19666;BMP180;9980;51.020;7.772;2022-10-16T11:09:39;97591.00;;;21.50
19666;BMP180;9980;51.020;7.772;2022-10-16T11:12:49;97574.00;;;21.60
19666;BMP180;9980;51.020;7.772;2022-10-16T11:15:25;97584.00;;;21.60
19666;BMP180;9980;51.020;7.772;2022-10-16T11:18:16;97588.00;;;21.70
19666;BMP180;9980;51.020;7.772;2022-10-16T11:21:08;97587.00;;;21.80
19666;BMP180;9980;51.020;7.772;2022-10-16T11:23:48;97571.00;;;21.80
19666;BMP180;9980;51.020;7.772;2022-10-16T11:26:32;97587.00;;;21.90
19666;BMP180;9980;51.020;7.772;2022-10-16T11:29:03;97582.00;;;22.00
19666;BMP180;9980;51.020;7.772;2022-10-16T11:31:44;97563.00;;;22.10
19666;BMP180;9980;51.020;7.772;2022-10-16T11:34:42;97571.00;;;22.10
19666;BMP180;9980;51.020;7.772;2022-10-16T11:37:21;97591.00;;;22.20
19666;BMP180;9980;51.020;7.772;2022-10-16T11:39:54;97579.00;;;22.20
19666;BMP180;9980;51.020;7.772;2022-10-16T11:42:37;97593.00;;;22.20
19666;BMP180;9980;51.020;7.772;2022-10-16T11:45:32;97580.00;;;22.30
19666;BMP180;9980;51.020;7.772;2022-10-16T11:48:20;97590.00;;;22.30
19666;BMP180;9980;51.020;7.772;2022-10-16T11:51:11;97593.00;;;22.30
19666;BMP180;9980;51.020;7.772;2022-10-16T11:54:08;97604.00;;;22.30
19666;BMP180;9980;51.020;7.772;2022-10-16T11:56:41;97600.00;;;22.40
19666;BMP180;9980;51.020;7.772;2022-10-16T12:01:51;97592.00;;;22.40
19666;BMP180;9980;51.020;7.772;2022-10-16T12:04:41;97600.00;;;22.40
19666;BMP180;9980;51.020;7.772;2022-10-16T12:07:19;97605.00;;;22.50
19666;BMP180;9980;51.020;7.772;2022-10-16T12:09:48;97588.00;;;22.50
19666;BMP180;9980;51.020;7.772;2022-10-16T12:12:27;97609.00;;;22.60
19666;BMP180;9980;51.020;7.772;2022-10-16T12:17:54;97615.00;;;22.70
19666;BMP180;9980;51.020;7.772;2022-10-16T12:20:27;97611.00;;;22.70
19666;BMP180;9980;51.020;7.772;2022-10-16T12:23:06;97631.00;;;22.70
19666;BMP180;9980;51.020;7.772;2022-10-16T12:25:39;97613.00;;;22.70
19666;BMP180;9980;51.020;7.772;2022-10-16T12:28:21;97620.00;;;22.70
19666;BMP180;9980;51.020;7.772;2022-10-16T12:31:02;97626.00;;;22.70
19666;BMP180;9980;51.020;7.772;2022-10-16T12:33:33;97614.00;;;22.70
19666;BMP180;9980;51.020;7.772;2022-10-16T12:36:07;97615.00;;;22.70
19666;BMP180;9980;51.020;7.772;2022-10-16T12:38:52;97623.00;;;22.70
19666;BMP180;9980;51.020;7.772;2022-10-16T12:41:36;97625.00;;;22.60
19666;BMP180;9980;51.020;7.772;2022-10-16T12:44:24;97628.00;;;22.60
19666;BMP180;9980;51.020;7.772;2022-10-16T12:46:55;97624.00;;;22.70
19666;BMP180;9980;51.020;7.772;2022-10-16T12:49:37;97631.00;;;22.60
19666;BMP180;9980;51.020;7.772;2022-10-16T12:54:57;97623.00;;;22.70
19666;BMP180;9980;51.020;7.772;2022-10-16T13:12:05;97616.00;;;22.60
19666;BMP180;9980;51.020;7.772;2022-10-16T13:15:01;97612.00;;;22.60
19666;BMP180;9980;51.020;7.772;2022-10-16T13:17:42;97624.00;;;22.60
19666;BMP180;9980;51.020;7.772;2022-10-16T13:26:13;97622.00;;;22.60
19666;BMP180;9980;51.020;7.772;2022-10-16T13:28:43;97620.00;;;22.70
19666;BMP180;9980;51.020;7.772;2022-10-16T13:31:19;97636.00;;;22.70
19666;BMP180;9980;51.020;7.772;2022-10-16T13:33:52;97622.00;;;22.70
19666;BMP180;9980;51.020;7.772;2022-10-16T13:36:25;97604.00;;;22.70
19666;BMP180;9980;51.020;7.772;2022-10-16T13:39:20;97635.00;;;22.70
19666;BMP180;9980;51.020;7.772;2022-10-16T13:42:15;97622.00;;;22.60
19666;BMP180;9980;51.020;7.772;2022-10-16T13:44:52;97636.00;;;22.70
19666;BMP180;9980;51.020;7.772;2022-10-16T13:47:26;97629.00;;;22.70
19666;BMP180;9980;51.020;7.772;2022-10-16T13:50:06;97632.00;;;22.60
19666;BMP180;9980;51.020;7.772;2022-10-16T13:52:36;97642.00;;;22.70
19666;BMP180;9980;51.020;7.772;2022-10-16T13:55:12;97641.00;;;22.60
19666;BMP180;9980;51.020;7.772;2022-10-16T13:57:41;97655.00;;;22.60
19666;BMP180;9980;51.020;7.772;2022-10-16T14:00:25;97644.00;;;22.50
19666;BMP180;9980;51.020;7.772;2022-10-16T14:03:13;97652.00;;;22.50
19666;BMP180;9980;51.020;7.772;2022-10-16T14:05:52;97650.00;;;22.50
19666;BMP180;9980;51.020;7.772;2022-10-16T14:08:20;97645.00;;;22.50
19666;BMP180;9980;51.020;7.772;2022-10-16T14:10:55;97650.00;;;22.40
19666;BMP180;9980;51.020;7.772;2022-10-16T14:13:37;97653.00;;;22.40
19666;BMP180;9980;51.020;7.772;2022-10-16T14:16:19;97640.00;;;22.40
19666;BMP180;9980;51.020;7.772;2022-10-16T14:19:04;97645.00;;;22.30
19666;BMP180;9980;51.020;7.772;2022-10-16T14:21:40;97637.00;;;22.40
19666;BMP180;9980;51.020;7.772;2022-10-16T14:26:58;97642.00;;;22.30
19666;BMP180;9980;51.020;7.772;2022-10-16T14:29:28;97647.00;;;22.30
19666;BMP180;9980;51.020;7.772;2022-10-16T14:32:05;97644.00;;;22.30
19666;BMP180;9980;51.020;7.772;2022-10-16T14:34:37;97623.00;;;22.30
19666;BMP180;9980;51.020;7.772;2022-10-16T14:37:24;97646.00;;;22.30
19666;BMP180;9980;51.020;7.772;2022-10-16T14:39:55;97643.00;;;22.30
19666;BMP180;9980;51.020;7.772;2022-10-16T14:42:24;97646.00;;;22.30
19666;BMP180;9980;51.020;7.772;2022-10-16T14:44:54;97654.00;;;22.30
19666;BMP180;9980;51.020;7.772;2022-10-16T14:47:25;97647.00;;;22.30
19666;BMP180;9980;51.020;7.772;2022-10-16T14:49:54;97641.00;;;22.30
19666;BMP180;9980;51.020;7.772;2022-10-16T14:52:22;97644.00;;;22.30
19666;BMP180;9980;51.020;7.772;2022-10-16T14:54:50;97629.00;;;22.30
19666;BMP180;9980;51.020;7.772;2022-10-16T14:57:24;97617.00;;;22.30
19666;BMP180;9980;51.020;7.772;2022-10-16T14:59:54;97632.00;;;22.30
19666;BMP180;9980;51.020;7.772;2022-10-16T15:04:49;97642.00;;;22.30
19666;BMP180;9980;51.020;7.772;2022-10-16T15:07:16;97637.00;;;22.30
19666;BMP180;9980;51.020;7.772;2022-10-16T15:09:43;97642.00;;;22.30
19666;BMP180;9980;51.020;7.772;2022-10-16T15:12:16;97629.00;;;22.20
19666;BMP180;9980;51.020;7.772;2022-10-16T15:14:43;97615.00;;;22.20
19666;BMP180;9980;51.020;7.772;2022-10-16T15:17:11;97631.00;;;22.30
19666;BMP180;9980;51.020;7.772;2022-10-16T15:19:38;97613.00;;;22.30
19666;BMP180;9980;51.020;7.772;2022-10-16T15:22:05;97628.00;;;22.20
19666;BMP180;9980;51.020;7.772;2022-10-16T15:24:32;97645.00;;;22.30
19666;BMP180;9980;51.020;7.772;2022-10-16T15:26:59;97632.00;;;22.30
19666;BMP180;9980;51.020;7.772;2022-10-16T15:29:26;97633.00;;;22.30
19666;BMP180;9980;51.020;7.772;2022-10-16T15:31:53;97642.00;;;22.20
19666;BMP180;9980;51.020;7.772;2022-10-16T15:34:20;97643.00;;;22.20
19666;BMP180;9980;51.020;7.772;2022-10-16T15:36:47;97654.00;;;22.20
19666;BMP180;9980;51.020;7.772;2022-10-16T15:39:19;97636.00;;;22.10
19666;BMP180;9980;51.020;7.772;2022-10-16T15:41:47;97643.00;;;22.10
19666;BMP180;9980;51.020;7.772;2022-10-16T15:44:18;97637.00;;;22.10
19666;BMP180;9980;51.020;7.772;2022-10-16T15:46:45;97644.00;;;22.00
19666;BMP180;9980;51.020;7.772;2022-10-16T15:49:12;97653.00;;;22.00
19666;BMP180;9980;51.020;7.772;2022-10-16T15:51:41;97647.00;;;21.90
19666;BMP180;9980;51.020;7.772;2022-10-16T15:54:09;97653.00;;;21.90
19666;BMP180;9980;51.020;7.772;2022-10-16T15:56:36;97658.00;;;21.90
19666;BMP180;9980;51.020;7.772;2022-10-16T15:59:04;97655.00;;;21.80
19666;BMP180;9980;51.020;7.772;2022-10-16T16:01:36;97670.00;;;21.80
19666;BMP180;9980;51.020;7.772;2022-10-16T16:04:03;97652.00;;;21.70
19666;BMP180;9980;51.020;7.772;2022-10-16T16:06:41;97653.00;;;21.70
19666;BMP180;9980;51.020;7.772;2022-10-16T16:09:12;97644.00;;;21.60
19666;BMP180;9980;51.020;7.772;2022-10-16T16:11:40;97660.00;;;21.60
19666;BMP180;9980;51.020;7.772;2022-10-16T16:14:12;97652.00;;;21.50